createdAt,value
2017-07-06T05:31:05.605Z,20.09
2017-07-06T05:31:31.087Z,20.07
2017-07-06T05:31:56.584Z,20.07
2017-07-06T05:32:22.076Z,20.14
2017-07-06T05:32:47.552Z,20.14
2017-07-06T05:33:13.050Z,20.16
2017-07-06T05:33:38.529Z,20.19
2017-07-06T05:34:04.015Z,20.13
2017-07-06T05:34:29.494Z,20.21
2017-07-06T05:34:54.956Z,20.28
2017-07-06T05:35:20.408Z,20.26
2017-07-06T05:35:45.900Z,20.34
2017-07-06T05:36:11.407Z,20.32
2017-07-06T05:36:36.808Z,20.25
2017-07-06T05:37:02.285Z,20.4
2017-07-06T05:37:27.769Z,20.39
2017-07-06T05:37:53.195Z,20.43
2017-07-06T05:38:18.641Z,20.39
2017-07-06T05:38:44.104Z,20.43
2017-07-06T05:39:09.602Z,20.47
2017-07-06T05:39:35.078Z,20.51
2017-07-06T05:40:00.541Z,20.52
2017-07-06T05:40:26.019Z,20.48
2017-07-06T05:40:51.468Z,20.56
2017-07-06T05:41:16.919Z,20.6
2017-07-06T05:41:42.366Z,20.62
2017-07-06T05:42:07.860Z,20.6
2017-07-06T05:42:33.307Z,20.59
2017-07-06T05:42:58.789Z,20.65
2017-07-06T05:43:24.253Z,20.63
2017-07-06T05:43:49.685Z,20.66
2017-07-06T05:44:15.155Z,20.69
2017-07-06T05:44:40.650Z,20.7
2017-07-06T05:45:06.117Z,20.72
2017-07-06T05:45:31.581Z,20.75
2017-07-06T05:45:57.029Z,20.7
2017-07-06T05:46:22.483Z,20.74
2017-07-06T05:46:47.997Z,20.78
2017-07-06T05:47:13.435Z,20.84
2017-07-06T05:47:38.918Z,20.78
2017-07-06T05:48:04.471Z,20.9
2017-07-06T05:48:29.867Z,20.84
2017-07-06T05:48:55.377Z,20.81
2017-07-06T05:49:20.829Z,20.82
2017-07-06T05:49:46.326Z,20.97
2017-07-06T05:50:11.807Z,20.92
2017-07-06T05:50:37.251Z,20.88
2017-07-06T05:51:02.710Z,20.96
2017-07-06T05:51:28.235Z,21.02
2017-07-06T05:51:53.768Z,20.88
2017-07-06T05:52:19.191Z,20.87
2017-07-06T05:52:44.661Z,20.95
2017-07-06T05:53:10.289Z,21
2017-07-06T05:53:35.722Z,21.02
2017-07-06T05:54:01.203Z,20.99
2017-07-06T05:54:26.685Z,21.03
2017-07-06T05:54:52.141Z,20.92
2017-07-06T05:55:17.596Z,21
2017-07-06T05:55:43.074Z,21.07
2017-07-06T05:56:08.548Z,21.03
2017-07-06T05:56:34.065Z,21.05
2017-07-06T05:56:59.557Z,21.05
2017-07-06T05:57:25.010Z,21.05
2017-07-06T05:57:50.475Z,21.09
2017-07-06T05:58:15.950Z,21.03
2017-07-06T05:58:41.442Z,21.03
2017-07-06T05:59:06.905Z,21.09
2017-07-06T05:59:32.330Z,21.15
2017-07-06T05:59:57.786Z,21.07
2017-07-06T06:00:23.514Z,21.14
2017-07-06T06:00:48.792Z,21.15
2017-07-06T06:01:14.239Z,21.17
2017-07-06T06:01:39.679Z,21.17
2017-07-06T06:02:05.191Z,21.24
2017-07-06T06:02:30.620Z,21.27
2017-07-06T06:02:56.072Z,21.21
2017-07-06T06:03:21.531Z,21.27
2017-07-06T06:03:47.009Z,21.32
2017-07-06T06:04:12.467Z,21.25
2017-07-06T06:04:37.939Z,21.36
2017-07-06T06:05:03.427Z,21.39
2017-07-06T06:05:28.884Z,21.39
2017-07-06T06:05:54.417Z,21.4
2017-07-06T06:06:19.867Z,21.39
2017-07-06T06:06:45.398Z,21.36
2017-07-06T06:07:10.811Z,21.45
2017-07-06T06:07:36.331Z,21.46
2017-07-06T06:08:01.773Z,21.51
2017-07-06T06:08:27.240Z,21.42
2017-07-06T06:08:52.694Z,21.43
2017-07-06T06:09:18.157Z,21.52
2017-07-06T06:09:43.643Z,21.57
2017-07-06T06:10:09.093Z,21.51
2017-07-06T06:10:34.557Z,21.54
2017-07-06T06:11:00.093Z,21.48
2017-07-06T06:11:25.562Z,21.5
2017-07-06T06:11:51.046Z,21.52
2017-07-06T06:12:16.500Z,21.54
2017-07-06T06:12:42.020Z,21.57
2017-07-06T06:13:07.466Z,21.58
2017-07-06T06:13:32.944Z,21.55
2017-07-06T06:13:58.460Z,21.54
2017-07-06T06:14:23.875Z,21.51
2017-07-06T06:14:49.326Z,21.58
2017-07-06T06:15:14.791Z,21.55
2017-07-06T06:15:40.246Z,21.54
2017-07-06T06:16:05.720Z,21.54
2017-07-06T06:16:31.187Z,21.62
2017-07-06T06:16:56.645Z,21.6
2017-07-06T06:17:22.119Z,21.62
2017-07-06T06:17:47.578Z,21.58
2017-07-06T06:18:13.076Z,21.67
2017-07-06T06:18:38.494Z,21.69
2017-07-06T06:19:03.978Z,21.69
2017-07-06T06:19:29.491Z,21.75
2017-07-06T06:19:54.945Z,21.72
2017-07-06T06:20:20.414Z,21.8
2017-07-06T06:20:45.853Z,21.75
2017-07-06T06:21:11.368Z,21.82
2017-07-06T06:21:36.935Z,21.82
2017-07-06T06:22:02.291Z,21.98
2017-07-06T06:22:27.768Z,21.91
2017-07-06T06:22:53.234Z,21.99
2017-07-06T06:23:18.707Z,22.04
2017-07-06T06:23:44.209Z,21.98
2017-07-06T06:24:09.653Z,21.98
2017-07-06T06:24:35.133Z,22.08
2017-07-06T06:25:00.671Z,21.98
2017-07-06T06:25:26.174Z,22.1
2017-07-06T06:25:51.745Z,22.14
2017-07-06T06:26:17.195Z,22.18
2017-07-06T06:26:42.678Z,22.13
2017-07-06T06:27:08.139Z,22.17
2017-07-06T06:27:33.592Z,22.22
2017-07-06T06:27:59.123Z,22.22
2017-07-06T06:28:24.560Z,22.25
2017-07-06T06:28:50.021Z,22.22
2017-07-06T06:29:15.492Z,22.22
2017-07-06T06:29:40.950Z,22.2
2017-07-06T06:30:06.400Z,22.29
2017-07-06T06:30:31.905Z,22.2
2017-07-06T06:30:57.320Z,22.25
2017-07-06T06:31:22.804Z,22.29
2017-07-06T06:31:48.303Z,22.23
2017-07-06T06:32:13.763Z,22.32
2017-07-06T06:32:39.178Z,22.39
2017-07-06T06:33:04.663Z,22.45
2017-07-06T06:33:30.128Z,22.39
2017-07-06T06:33:55.589Z,22.39
2017-07-06T06:34:21.061Z,22.36
2017-07-06T06:34:46.520Z,22.39
2017-07-06T06:35:12.002Z,22.53
2017-07-06T06:35:37.480Z,22.5
2017-07-06T06:36:02.951Z,22.57
2017-07-06T06:36:28.391Z,22.5
2017-07-06T06:36:53.845Z,22.53
2017-07-06T06:37:19.335Z,22.54
2017-07-06T06:37:44.775Z,22.51
2017-07-06T06:38:10.249Z,22.51
2017-07-06T06:38:35.734Z,22.53
2017-07-06T06:39:01.360Z,22.62
2017-07-06T06:39:26.673Z,22.65
2017-07-06T06:39:52.143Z,22.6
2017-07-06T06:40:17.604Z,22.73
2017-07-06T06:40:43.082Z,22.68
2017-07-06T06:41:08.538Z,22.66
2017-07-06T06:41:34.040Z,22.7
2017-07-06T06:41:59.456Z,22.7
2017-07-06T06:42:24.915Z,22.73
2017-07-06T06:42:50.355Z,22.73
2017-07-06T06:43:15.836Z,22.75
2017-07-06T06:43:41.297Z,22.81
2017-07-06T06:44:06.753Z,22.78
2017-07-06T06:44:32.225Z,22.8
2017-07-06T06:44:57.712Z,22.81
2017-07-06T06:45:23.195Z,22.81
2017-07-06T06:45:48.630Z,22.88
2017-07-06T06:46:14.101Z,22.81
2017-07-06T06:46:39.626Z,22.84
2017-07-06T06:47:05.078Z,22.85
2017-07-06T06:47:30.576Z,22.8
2017-07-06T06:47:56.040Z,22.85
2017-07-06T06:48:21.489Z,22.83
2017-07-06T06:48:47.043Z,22.87
2017-07-06T06:49:12.497Z,22.83
2017-07-06T06:49:37.977Z,22.83
2017-07-06T06:50:03.475Z,22.84
2017-07-06T06:50:28.930Z,22.84
2017-07-06T06:50:54.396Z,22.94
2017-07-06T06:51:19.863Z,22.87
2017-07-06T06:51:45.354Z,22.85
2017-07-06T06:52:10.864Z,22.85
2017-07-06T06:52:36.338Z,22.87
2017-07-06T06:53:01.778Z,22.87
2017-07-06T06:53:27.231Z,22.88
2017-07-06T06:53:52.673Z,22.91
2017-07-06T06:54:18.166Z,22.9
2017-07-06T06:54:43.641Z,22.94
2017-07-06T06:55:09.132Z,22.99
2017-07-06T06:55:34.565Z,23
2017-07-06T06:56:00.047Z,23
2017-07-06T06:56:25.527Z,23.02
2017-07-06T06:56:50.998Z,23.03
2017-07-06T06:57:16.518Z,22.98
2017-07-06T06:57:42.011Z,23.02
2017-07-06T06:58:07.430Z,22.96
2017-07-06T06:58:32.917Z,23.09
2017-07-06T06:58:58.383Z,23.13
2017-07-06T06:59:23.842Z,23.12
2017-07-06T06:59:49.320Z,23.15
2017-07-06T07:00:14.753Z,23.12
2017-07-06T07:00:40.261Z,23.2
2017-07-06T07:01:05.703Z,23.21
2017-07-06T07:01:31.192Z,23.24
2017-07-06T07:01:56.690Z,23.32
2017-07-06T07:02:22.099Z,23.36
2017-07-06T07:02:47.590Z,23.4
2017-07-06T07:03:13.111Z,23.34
2017-07-06T07:03:38.575Z,23.34
2017-07-06T07:04:04.061Z,23.37
2017-07-06T07:04:29.502Z,23.36
2017-07-06T07:04:54.984Z,23.41
2017-07-06T07:05:20.464Z,23.39
2017-07-06T07:05:45.896Z,23.46
2017-07-06T07:06:11.368Z,23.51
2017-07-06T07:06:36.867Z,23.47
2017-07-06T07:07:02.372Z,23.56
2017-07-06T07:07:27.799Z,23.54
2017-07-06T07:07:53.233Z,23.66
2017-07-06T07:08:18.705Z,23.63
2017-07-06T07:08:44.181Z,23.66
2017-07-06T07:09:09.643Z,23.65
2017-07-06T07:09:35.163Z,23.63
2017-07-06T07:10:00.652Z,23.69
2017-07-06T07:10:26.090Z,23.74
2017-07-06T07:10:51.559Z,23.83
2017-07-06T07:11:17.143Z,23.83
2017-07-06T07:11:42.552Z,23.84
2017-07-06T07:12:08.039Z,23.93
2017-07-06T07:12:33.527Z,23.8
2017-07-06T07:12:58.982Z,23.87
2017-07-06T07:13:24.478Z,23.87
2017-07-06T07:13:49.932Z,23.88
2017-07-06T07:14:15.384Z,23.84
2017-07-06T07:14:40.863Z,23.87
2017-07-06T07:15:06.327Z,23.8
2017-07-06T07:15:31.830Z,23.83
2017-07-06T07:15:57.257Z,23.91
2017-07-06T07:16:22.723Z,23.83
2017-07-06T07:16:48.188Z,23.87
2017-07-06T07:17:13.686Z,23.88
2017-07-06T07:17:39.211Z,23.83
2017-07-06T07:18:04.608Z,23.87
2017-07-06T07:18:30.084Z,23.98
2017-07-06T07:18:55.592Z,23.96
2017-07-06T07:19:21.025Z,23.93
2017-07-06T07:19:46.513Z,23.95
2017-07-06T07:20:11.981Z,23.99
2017-07-06T07:20:37.428Z,24.03
2017-07-06T07:21:02.918Z,24.01
2017-07-06T07:21:28.377Z,24.01
2017-07-06T07:21:53.876Z,23.99
2017-07-06T07:22:19.432Z,24.03
2017-07-06T07:22:44.791Z,24.06
2017-07-06T07:23:10.554Z,24.06
2017-07-06T07:23:36.041Z,24.01
2017-07-06T07:24:01.488Z,24.02
2017-07-06T07:24:26.962Z,24.05
2017-07-06T07:24:52.454Z,24.05
2017-07-06T07:25:17.917Z,24.05
2017-07-06T07:25:43.420Z,24.02
2017-07-06T07:26:08.867Z,24.06
2017-07-06T07:26:34.351Z,24.01
2017-07-06T07:26:59.801Z,24.03
2017-07-06T07:27:25.251Z,24.14
2017-07-06T07:27:50.723Z,24.2
2017-07-06T07:28:16.211Z,24.16
2017-07-06T07:28:41.643Z,24.21
2017-07-06T07:29:07.227Z,24.26
2017-07-06T07:29:32.572Z,24.32
2017-07-06T07:29:58.063Z,24.21
2017-07-06T07:30:23.486Z,24.32
2017-07-06T07:30:48.981Z,24.43
2017-07-06T07:31:14.419Z,24.39
2017-07-06T07:31:39.903Z,24.42
2017-07-06T07:32:05.349Z,24.42
2017-07-06T07:32:30.807Z,24.47
2017-07-06T07:32:56.286Z,24.5
2017-07-06T07:33:21.732Z,24.66
2017-07-06T07:33:47.195Z,24.6
2017-07-06T07:34:12.666Z,24.63
2017-07-06T07:34:38.099Z,24.57
2017-07-06T07:35:03.530Z,24.66
2017-07-06T07:35:28.979Z,24.61
2017-07-06T07:35:54.451Z,24.61
2017-07-06T07:36:19.908Z,24.66
2017-07-06T07:36:45.374Z,24.66
2017-07-06T07:37:10.805Z,24.66
2017-07-06T07:37:36.268Z,24.78
2017-07-06T07:38:01.728Z,24.61
2017-07-06T07:38:27.213Z,24.77
2017-07-06T07:38:52.679Z,24.77
2017-07-06T07:39:18.150Z,24.77
2017-07-06T07:39:43.617Z,24.81
2017-07-06T07:40:09.075Z,24.81
2017-07-06T07:40:34.594Z,24.8
2017-07-06T07:41:00.053Z,24.86
2017-07-06T07:41:25.505Z,24.74
2017-07-06T07:41:50.986Z,24.89
2017-07-06T07:42:16.588Z,24.86
2017-07-06T07:42:42.131Z,24.86
2017-07-06T07:43:07.607Z,24.77
2017-07-06T07:43:33.101Z,24.92
2017-07-06T07:43:58.566Z,24.92
2017-07-06T07:44:24.025Z,24.89
2017-07-06T07:44:49.485Z,24.91
2017-07-06T07:45:15.024Z,24.76
2017-07-06T07:45:40.493Z,24.78
2017-07-06T07:46:05.950Z,24.77
2017-07-06T07:46:31.411Z,24.8
2017-07-06T07:46:56.891Z,24.8
2017-07-06T07:47:22.365Z,24.81
2017-07-06T07:47:47.852Z,24.68
2017-07-06T07:48:13.335Z,24.6
2017-07-06T07:48:38.805Z,24.74
2017-07-06T07:49:04.255Z,24.8
2017-07-06T07:49:29.716Z,24.76
2017-07-06T07:49:55.157Z,24.76
2017-07-06T07:50:20.638Z,24.77
2017-07-06T07:50:46.076Z,24.8
2017-07-06T07:51:11.568Z,24.85
2017-07-06T07:51:36.987Z,24.76
2017-07-06T07:52:02.448Z,24.85
2017-07-06T07:52:27.934Z,24.76
2017-07-06T07:52:53.414Z,24.77
2017-07-06T07:53:18.819Z,24.84
2017-07-06T07:53:44.290Z,24.93
2017-07-06T07:54:09.756Z,24.89
2017-07-06T07:54:35.255Z,24.8
2017-07-06T07:55:00.713Z,24.93
2017-07-06T07:55:26.191Z,24.88
2017-07-06T07:55:51.661Z,24.95
2017-07-06T07:56:17.130Z,24.96
2017-07-06T07:56:42.601Z,24.96
2017-07-06T07:57:08.071Z,24.96
2017-07-06T07:57:33.531Z,24.98
2017-07-06T07:57:59.047Z,24.92
2017-07-06T07:58:24.478Z,24.88
2017-07-06T07:58:49.951Z,24.96
2017-07-06T07:59:15.418Z,24.95
2017-07-06T07:59:40.920Z,24.96
2017-07-06T08:00:06.363Z,24.96
2017-07-06T08:00:31.860Z,24.99
2017-07-06T08:00:57.325Z,24.96
2017-07-06T08:01:22.756Z,24.99
2017-07-06T08:01:48.232Z,25.01
2017-07-06T08:02:13.695Z,24.98
2017-07-06T08:02:39.157Z,24.99
2017-07-06T08:03:04.644Z,24.93
2017-07-06T08:03:30.095Z,24.91
2017-07-06T08:03:55.559Z,24.91
2017-07-06T08:04:21.016Z,25.03
2017-07-06T08:04:46.498Z,24.88
2017-07-06T08:05:11.958Z,24.92
2017-07-06T08:05:37.394Z,24.99
2017-07-06T08:06:02.906Z,24.96
2017-07-06T08:06:28.391Z,25.01
2017-07-06T08:06:53.835Z,25.03
2017-07-06T08:07:19.313Z,25.03
2017-07-06T08:07:44.784Z,24.99
2017-07-06T08:08:10.258Z,24.98
2017-07-06T08:08:35.724Z,24.93
2017-07-06T08:09:01.221Z,24.92
2017-07-06T08:09:26.707Z,24.99
2017-07-06T08:09:52.167Z,25.03
2017-07-06T08:10:17.644Z,25.06
2017-07-06T08:10:43.108Z,25.08
2017-07-06T08:11:08.580Z,25.11
2017-07-06T08:11:34.088Z,25.1
2017-07-06T08:11:59.547Z,25.18
2017-07-06T08:12:25.022Z,25.23
2017-07-06T08:12:50.509Z,25.31
2017-07-06T08:13:15.966Z,25.22
2017-07-06T08:13:41.452Z,25.25
2017-07-06T08:14:06.920Z,25.28
2017-07-06T08:14:32.387Z,25.31
2017-07-06T08:14:57.858Z,25.23
2017-07-06T08:15:23.339Z,25.21
2017-07-06T08:15:48.781Z,25.13
2017-07-06T08:16:14.250Z,25.08
2017-07-06T08:16:39.721Z,25.14
2017-07-06T08:17:05.181Z,24.96
2017-07-06T08:17:30.642Z,24.96
2017-07-06T08:17:56.110Z,24.99
2017-07-06T08:18:21.598Z,24.93
2017-07-06T08:18:47.042Z,24.93
2017-07-06T08:19:12.578Z,24.96
2017-07-06T08:19:38.007Z,24.88
2017-07-06T08:20:03.447Z,24.86
2017-07-06T08:20:28.928Z,24.77
2017-07-06T08:20:54.399Z,24.84
2017-07-06T08:21:19.864Z,24.78
2017-07-06T08:21:45.335Z,24.8
2017-07-06T08:22:10.794Z,24.85
2017-07-06T08:22:36.268Z,24.77
2017-07-06T08:23:01.727Z,24.8
2017-07-06T08:23:27.207Z,24.74
2017-07-06T08:23:52.704Z,24.91
2017-07-06T08:24:18.171Z,24.96
2017-07-06T08:24:43.668Z,24.88
2017-07-06T08:25:09.169Z,24.98
2017-07-06T08:25:34.594Z,24.96
2017-07-06T08:26:00.078Z,25.06
2017-07-06T08:26:25.551Z,25.08
2017-07-06T08:26:51.019Z,25.11
2017-07-06T08:27:16.486Z,25.11
2017-07-06T08:27:41.979Z,25.11
2017-07-06T08:28:07.486Z,25.1
2017-07-06T08:28:32.971Z,25.08
2017-07-06T08:28:58.444Z,25.08
2017-07-06T08:29:23.885Z,25.1
2017-07-06T08:29:49.366Z,24.95
2017-07-06T08:30:14.840Z,24.99
2017-07-06T08:30:40.287Z,24.98
2017-07-06T08:31:05.787Z,24.93
2017-07-06T08:31:31.269Z,24.99
2017-07-06T08:31:56.746Z,24.95
2017-07-06T08:32:22.222Z,25.01
2017-07-06T08:32:47.703Z,24.99
2017-07-06T08:33:13.161Z,25.07
2017-07-06T08:33:38.641Z,25.07
2017-07-06T08:34:04.121Z,25.07
2017-07-06T08:34:29.627Z,25.1
2017-07-06T08:34:55.058Z,25.07
2017-07-06T08:35:20.541Z,25.13
2017-07-06T08:35:46.022Z,25.17
2017-07-06T08:36:11.510Z,25.21
2017-07-06T08:36:36.989Z,25.28
2017-07-06T08:37:02.473Z,25.28
2017-07-06T08:37:27.932Z,25.26
2017-07-06T08:37:53.409Z,25.31
2017-07-06T08:38:18.871Z,25.26
2017-07-06T08:38:44.371Z,25.31
2017-07-06T08:39:09.821Z,25.32
2017-07-06T08:39:35.313Z,25.35
2017-07-06T08:40:00.783Z,25.35
2017-07-06T08:40:26.229Z,25.47
2017-07-06T08:40:51.696Z,25.51
2017-07-06T08:41:17.190Z,25.44
2017-07-06T08:41:42.647Z,25.47
2017-07-06T08:42:08.088Z,25.55
2017-07-06T08:42:33.573Z,25.53
2017-07-06T08:42:59.074Z,25.63
2017-07-06T08:43:24.519Z,25.58
2017-07-06T08:43:50.038Z,25.58
2017-07-06T08:44:15.498Z,25.48
2017-07-06T08:44:40.996Z,25.5
2017-07-06T08:45:06.476Z,25.5
2017-07-06T08:45:31.961Z,25.5
2017-07-06T08:45:57.416Z,25.47
2017-07-06T08:46:22.866Z,25.38
2017-07-06T08:46:48.340Z,25.36
2017-07-06T08:47:13.883Z,25.48
2017-07-06T08:47:39.387Z,25.47
2017-07-06T08:48:04.851Z,25.54
2017-07-06T08:48:30.321Z,25.53
2017-07-06T08:48:55.807Z,25.48
2017-07-06T08:49:21.269Z,25.6
2017-07-06T08:49:46.737Z,25.59
2017-07-06T08:50:12.191Z,25.59
2017-07-06T08:50:37.659Z,25.68
2017-07-06T08:51:03.147Z,25.65
2017-07-06T08:51:28.616Z,25.73
2017-07-06T08:51:54.100Z,25.75
2017-07-06T08:52:19.616Z,25.78
2017-07-06T08:52:45.033Z,25.83
2017-07-06T08:53:10.542Z,25.88
2017-07-06T08:53:35.968Z,25.87
2017-07-06T08:54:01.460Z,25.83
2017-07-06T08:54:26.910Z,25.9
2017-07-06T08:54:52.362Z,25.8
2017-07-06T08:55:17.828Z,25.85
2017-07-06T08:55:43.291Z,25.95
2017-07-06T08:56:08.752Z,25.85
2017-07-06T08:56:34.210Z,25.88
2017-07-06T08:56:59.681Z,26.02
2017-07-06T08:57:25.154Z,25.91
2017-07-06T08:57:50.641Z,25.88
2017-07-06T08:58:16.098Z,25.9
2017-07-06T08:58:41.583Z,25.91
2017-07-06T08:59:07.076Z,25.91
2017-07-06T08:59:32.545Z,25.91
2017-07-06T08:59:58.025Z,25.9
2017-07-06T09:00:23.489Z,25.91
2017-07-06T09:00:48.975Z,25.85
2017-07-06T09:01:14.444Z,25.84
2017-07-06T09:01:39.984Z,25.85
2017-07-06T09:02:05.406Z,25.83
2017-07-06T09:02:30.875Z,25.81
2017-07-06T09:02:56.343Z,25.85
2017-07-06T09:03:21.821Z,25.88
2017-07-06T09:03:47.265Z,25.88
2017-07-06T09:04:12.734Z,25.9
2017-07-06T09:04:38.215Z,25.88
2017-07-06T09:05:03.719Z,25.95
2017-07-06T09:05:29.160Z,26
2017-07-06T09:05:54.637Z,26.02
2017-07-06T09:06:20.130Z,26.07
2017-07-06T09:06:45.633Z,26.02
2017-07-06T09:07:11.101Z,26.06
2017-07-06T09:07:36.545Z,26
2017-07-06T09:08:02.006Z,26.05
2017-07-06T09:08:27.487Z,26.07
2017-07-06T09:08:52.942Z,26.05
2017-07-06T09:09:18.422Z,25.99
2017-07-06T09:09:43.898Z,25.99
2017-07-06T09:10:09.361Z,26.03
2017-07-06T09:10:34.824Z,26.03
2017-07-06T09:11:00.316Z,26.05
2017-07-06T09:11:25.793Z,26.03
2017-07-06T09:11:51.266Z,26.1
2017-07-06T09:12:16.756Z,25.99
2017-07-06T09:12:42.201Z,26.1
2017-07-06T09:13:07.663Z,26.19
2017-07-06T09:13:33.139Z,26.16
2017-07-06T09:13:58.594Z,26.16
2017-07-06T09:14:24.066Z,26.28
2017-07-06T09:14:49.540Z,26.21
2017-07-06T09:15:15.081Z,26.4
2017-07-06T09:15:40.547Z,26.43
2017-07-06T09:16:06.042Z,26.47
2017-07-06T09:16:31.511Z,26.53
2017-07-06T09:16:57.028Z,26.63
2017-07-06T09:17:22.452Z,26.55
2017-07-06T09:17:47.951Z,26.71
2017-07-06T09:18:13.451Z,26.71
2017-07-06T09:18:38.941Z,26.74
2017-07-06T09:19:04.401Z,26.83
2017-07-06T09:19:29.867Z,26.84
2017-07-06T09:19:55.353Z,26.92
2017-07-06T09:20:20.847Z,26.8
2017-07-06T09:20:46.340Z,26.84
2017-07-06T09:21:11.807Z,26.95
2017-07-06T09:21:37.272Z,26.95
2017-07-06T09:22:02.768Z,26.9
2017-07-06T09:22:28.216Z,26.93
2017-07-06T09:22:53.683Z,26.95
2017-07-06T09:23:19.136Z,26.9
2017-07-06T09:23:44.629Z,26.92
2017-07-06T09:24:10.117Z,26.88
2017-07-06T09:24:35.605Z,26.77
2017-07-06T09:25:01.069Z,26.84
2017-07-06T09:25:26.518Z,26.88
2017-07-06T09:25:51.996Z,26.83
2017-07-06T09:26:17.515Z,26.83
2017-07-06T09:26:42.997Z,26.8
2017-07-06T09:27:08.471Z,26.92
2017-07-06T09:27:33.943Z,26.9
2017-07-06T09:27:59.423Z,26.92
2017-07-06T09:28:24.896Z,26.95
2017-07-06T09:28:50.354Z,26.92
2017-07-06T09:29:15.831Z,27.03
2017-07-06T09:29:41.299Z,27.05
2017-07-06T09:30:06.772Z,27.07
2017-07-06T09:30:32.245Z,27.02
2017-07-06T09:30:57.721Z,27.1
2017-07-06T09:31:23.183Z,27.12
2017-07-06T09:31:48.674Z,27.18
2017-07-06T09:32:14.164Z,27.14
2017-07-06T09:32:39.696Z,27.14
2017-07-06T09:33:05.132Z,27.08
2017-07-06T09:33:30.602Z,27.15
2017-07-06T09:33:56.056Z,27.17
2017-07-06T09:34:21.528Z,27.08
2017-07-06T09:34:47.047Z,27.05
2017-07-06T09:35:12.460Z,27
2017-07-06T09:35:37.909Z,27.07
2017-07-06T09:36:03.413Z,27.03
2017-07-06T09:36:28.862Z,27.07
2017-07-06T09:36:54.344Z,27.07
2017-07-06T09:37:19.837Z,27.11
2017-07-06T09:37:45.300Z,27.07
2017-07-06T09:38:10.747Z,27.08
2017-07-06T09:38:36.216Z,27
2017-07-06T09:39:01.668Z,27.08
2017-07-06T09:39:27.167Z,27
2017-07-06T09:39:52.623Z,27
2017-07-06T09:40:18.078Z,26.95
2017-07-06T09:40:43.555Z,26.89
2017-07-06T09:41:09.017Z,26.88
2017-07-06T09:41:34.513Z,26.77
2017-07-06T09:42:00.004Z,26.65
2017-07-06T09:42:25.484Z,26.59
2017-07-06T09:42:50.980Z,26.52
2017-07-06T09:43:16.444Z,26.47
2017-07-06T09:43:41.898Z,26.43
2017-07-06T09:44:07.363Z,26.38
2017-07-06T09:44:32.828Z,26.4
2017-07-06T09:44:58.332Z,26.44
2017-07-06T09:45:23.782Z,26.43
2017-07-06T09:45:49.251Z,26.52
2017-07-06T09:46:14.725Z,26.47
2017-07-06T09:46:40.195Z,26.48
2017-07-06T09:47:05.678Z,26.63
2017-07-06T09:47:31.145Z,26.56
2017-07-06T09:47:56.614Z,26.66
2017-07-06T09:48:22.081Z,26.7
2017-07-06T09:48:47.565Z,26.66
2017-07-06T09:49:13.045Z,26.74
2017-07-06T09:49:38.505Z,26.68
2017-07-06T09:50:03.980Z,26.73
2017-07-06T09:50:29.452Z,26.77
2017-07-06T09:50:54.924Z,26.84
2017-07-06T09:51:20.404Z,26.88
2017-07-06T09:51:45.886Z,26.89
2017-07-06T09:52:11.339Z,26.85
2017-07-06T09:52:36.821Z,26.9
2017-07-06T09:53:02.266Z,26.85
2017-07-06T09:53:27.741Z,26.85
2017-07-06T09:53:53.217Z,26.85
2017-07-06T09:54:18.698Z,26.92
2017-07-06T09:54:44.182Z,26.92
2017-07-06T09:55:09.638Z,26.92
2017-07-06T09:55:35.103Z,26.93
2017-07-06T09:56:00.585Z,26.93
2017-07-06T09:56:26.063Z,27
2017-07-06T09:56:51.546Z,26.99
2017-07-06T09:57:17.036Z,27.03
2017-07-06T09:57:42.492Z,27
2017-07-06T09:58:07.956Z,27.03
2017-07-06T09:58:33.453Z,27.02
2017-07-06T09:58:58.901Z,27.08
2017-07-06T09:59:24.408Z,27.05
2017-07-06T09:59:49.863Z,27.08
2017-07-06T10:00:15.326Z,27.12
2017-07-06T10:00:40.825Z,27.21
2017-07-06T10:01:06.290Z,27.2
2017-07-06T10:01:31.760Z,27.25
2017-07-06T10:01:57.247Z,27.27
2017-07-06T10:02:22.735Z,27.4
2017-07-06T10:02:48.216Z,27.39
2017-07-06T10:03:13.645Z,27.37
2017-07-06T10:03:39.303Z,27.44
2017-07-06T10:04:04.766Z,27.4
2017-07-06T10:04:30.275Z,27.44
2017-07-06T10:04:55.715Z,27.37
2017-07-06T10:05:21.202Z,27.44
2017-07-06T10:05:46.673Z,27.4
2017-07-06T10:06:12.176Z,27.39
2017-07-06T10:06:37.638Z,27.4
2017-07-06T10:07:03.109Z,27.4
2017-07-06T10:07:28.657Z,27.45
2017-07-06T10:07:54.080Z,27.47
2017-07-06T10:08:19.561Z,27.45
2017-07-06T10:08:45.006Z,27.47
2017-07-06T10:09:10.500Z,27.52
2017-07-06T10:09:35.942Z,27.48
2017-07-06T10:10:01.418Z,27.47
2017-07-06T10:10:26.874Z,27.55
2017-07-06T10:10:52.338Z,27.59
2017-07-06T10:11:17.832Z,27.59
2017-07-06T10:11:43.292Z,27.52
2017-07-06T10:12:08.767Z,27.58
2017-07-06T10:12:34.243Z,27.67
2017-07-06T10:12:59.686Z,27.63
2017-07-06T10:13:25.170Z,27.7
2017-07-06T10:13:50.650Z,27.68
2017-07-06T10:14:16.100Z,27.73
2017-07-06T10:14:41.618Z,27.64
2017-07-06T10:15:07.084Z,27.65
2017-07-06T10:15:32.581Z,27.55
2017-07-06T10:15:58.027Z,27.59
2017-07-06T10:16:23.502Z,27.48
2017-07-06T10:16:49.002Z,27.45
2017-07-06T10:17:14.446Z,27.49
2017-07-06T10:17:39.909Z,27.51
2017-07-06T10:18:05.364Z,27.48
2017-07-06T10:18:30.851Z,27.55
2017-07-06T10:18:56.289Z,27.49
2017-07-06T10:19:21.746Z,27.39
2017-07-06T10:19:47.225Z,27.42
2017-07-06T10:20:12.669Z,27.4
2017-07-06T10:20:38.172Z,27.33
2017-07-06T10:21:03.611Z,27.39
2017-07-06T10:21:29.103Z,27.44
2017-07-06T10:21:54.598Z,27.4
2017-07-06T10:22:20.068Z,27.39
2017-07-06T10:22:45.572Z,27.47
2017-07-06T10:23:11.019Z,27.47
2017-07-06T10:23:36.494Z,27.44
2017-07-06T10:24:01.984Z,27.36
2017-07-06T10:24:27.439Z,27.35
2017-07-06T10:24:52.905Z,27.36
2017-07-06T10:25:18.393Z,27.36
2017-07-06T10:25:43.869Z,27.32
2017-07-06T10:26:09.374Z,27.32
2017-07-06T10:26:34.849Z,27.39
2017-07-06T10:27:00.375Z,27.21
2017-07-06T10:27:25.796Z,27.21
2017-07-06T10:27:51.272Z,27.25
2017-07-06T10:28:16.737Z,27.17
2017-07-06T10:28:42.228Z,27.22
2017-07-06T10:29:07.693Z,27.27
2017-07-06T10:29:33.155Z,27.27
2017-07-06T10:29:58.646Z,27.26
2017-07-06T10:30:24.115Z,27.3
2017-07-06T10:30:49.636Z,27.27
2017-07-06T10:31:15.075Z,27.27
2017-07-06T10:31:40.566Z,27.22
2017-07-06T10:32:06.023Z,27.26
2017-07-06T10:32:31.515Z,27.25
2017-07-06T10:32:56.976Z,27.14
2017-07-06T10:33:22.450Z,27.26
2017-07-06T10:33:47.930Z,27.18
2017-07-06T10:34:13.402Z,27.26
2017-07-06T10:34:38.869Z,27.2
2017-07-06T10:35:04.368Z,27.3
2017-07-06T10:35:29.838Z,27.36
2017-07-06T10:35:55.312Z,27.32
2017-07-06T10:36:20.805Z,27.39
2017-07-06T10:36:46.287Z,27.29
2017-07-06T10:37:11.785Z,27.36
2017-07-06T10:37:37.245Z,27.3
2017-07-06T10:38:02.716Z,27.32
2017-07-06T10:38:28.182Z,27.32
2017-07-06T10:38:53.652Z,27.25
2017-07-06T10:39:19.121Z,27.26
2017-07-06T10:39:44.599Z,27.36
2017-07-06T10:40:10.061Z,27.27
2017-07-06T10:40:35.558Z,27.37
2017-07-06T10:41:01.042Z,27.36
2017-07-06T10:41:26.501Z,27.37
2017-07-06T10:41:51.952Z,27.44
2017-07-06T10:42:17.454Z,27.48
2017-07-06T10:42:42.907Z,27.45
2017-07-06T10:43:08.370Z,27.45
2017-07-06T10:43:33.841Z,27.52
2017-07-06T10:43:59.279Z,27.58
2017-07-06T10:44:24.811Z,27.54
2017-07-06T10:44:50.272Z,27.59
2017-07-06T10:45:15.732Z,27.64
2017-07-06T10:45:41.272Z,27.6
2017-07-06T10:46:06.666Z,27.63
2017-07-06T10:46:32.141Z,27.7
2017-07-06T10:46:57.618Z,27.74
2017-07-06T10:47:23.075Z,27.8
2017-07-06T10:47:48.544Z,27.77
2017-07-06T10:48:14.023Z,27.8
2017-07-06T10:48:39.501Z,27.77
2017-07-06T10:49:04.976Z,27.83
2017-07-06T10:49:30.443Z,27.78
2017-07-06T10:49:55.927Z,27.83
2017-07-06T10:50:21.412Z,27.87
2017-07-06T10:50:46.854Z,27.82
2017-07-06T10:51:12.313Z,27.87
2017-07-06T10:51:37.781Z,27.85
2017-07-06T10:52:03.263Z,27.85
2017-07-06T10:52:28.734Z,27.85
2017-07-06T10:52:54.173Z,27.85
2017-07-06T10:53:19.644Z,27.83
2017-07-06T10:53:45.140Z,27.82
2017-07-06T10:54:10.583Z,27.86
2017-07-06T10:54:36.045Z,27.87
2017-07-06T10:55:01.497Z,27.93
2017-07-06T10:55:26.991Z,27.82
2017-07-06T10:55:52.474Z,27.85
2017-07-06T10:56:17.938Z,27.73
2017-07-06T10:56:43.415Z,27.77
2017-07-06T10:57:08.890Z,27.74
2017-07-06T10:57:34.346Z,27.63
2017-07-06T10:57:59.807Z,27.64
2017-07-06T10:58:25.278Z,27.55
2017-07-06T10:58:50.800Z,27.52
2017-07-06T10:59:16.354Z,27.48
2017-07-06T10:59:41.846Z,27.49
2017-07-06T11:00:07.313Z,27.54
2017-07-06T11:00:32.753Z,27.47